createdAt,value
2022-08-14T00:01:55.433Z,4.50
2022-08-14T00:04:46.360Z,4.38
2022-08-14T00:07:35.635Z,4.50
2022-08-14T00:10:51.569Z,4.38
2022-08-14T00:13:40.904Z,4.85
2022-08-14T00:16:41.364Z,5.07
2022-08-14T00:19:33.516Z,4.60
2022-08-14T00:22:56.600Z,4.85
2022-08-14T00:25:42.118Z,4.50
2022-08-14T00:28:32.793Z,4.50
2022-08-14T00:31:35.197Z,4.40
2022-08-14T00:34:36.344Z,4.75
2022-08-14T00:37:32.029Z,4.93
2022-08-14T00:40:33.073Z,4.65
2022-08-14T00:43:24.213Z,4.47
2022-08-14T00:46:23.445Z,4.38
2022-08-14T00:49:23.315Z,4.60
2022-08-14T00:52:17.695Z,4.82
2022-08-14T00:55:08.747Z,4.82
2022-08-14T00:58:20.327Z,4.95
2022-08-14T01:01:21.188Z,4.60
2022-08-14T01:04:51.577Z,4.80
2022-08-14T01:07:23.586Z,5.28
2022-08-14T01:10:12.609Z,4.85
2022-08-14T01:13:01.312Z,4.22
2022-08-14T01:15:58.397Z,4.93
2022-08-14T01:19:07.504Z,5.00
2022-08-14T01:21:58.849Z,4.18
2022-08-14T01:24:50.991Z,4.55
2022-08-14T01:27:56.864Z,5.43
2022-08-14T01:30:46.425Z,4.85
2022-08-14T01:33:59.314Z,5.45
2022-08-14T01:36:47.193Z,5.18
2022-08-14T01:39:37.948Z,5.10
2022-08-14T01:42:30.972Z,5.43
2022-08-14T01:45:25.519Z,5.10
2022-08-14T01:48:14.521Z,4.93
2022-08-14T01:51:03.582Z,5.00
2022-08-14T01:53:55.342Z,4.72
2022-08-14T01:56:46.129Z,5.40
2022-08-14T01:59:37.817Z,4.88
2022-08-14T02:02:27.838Z,5.10
2022-08-14T02:05:35.517Z,5.07
2022-08-14T02:08:35.471Z,5.32
2022-08-14T02:11:25.039Z,5.40
2022-08-14T02:14:15.614Z,5.75
2022-08-14T02:17:23.070Z,5.78
2022-08-14T02:20:14.086Z,5.47
2022-08-14T02:23:02.914Z,5.63
2022-08-14T02:25:54.338Z,5.60
2022-08-14T02:28:57.913Z,5.88
2022-08-14T02:31:52.787Z,5.85
2022-08-14T02:34:43.038Z,6.18
2022-08-14T02:37:46.389Z,6.65
2022-08-14T02:40:37.729Z,6.97
2022-08-14T02:43:36.791Z,6.53
2022-08-14T02:46:35.463Z,6.57
2022-08-14T02:49:34.126Z,6.78
2022-08-14T02:52:56.857Z,6.43
2022-08-14T02:55:32.930Z,6.72
2022-08-14T02:58:30.440Z,7.07
2022-08-14T03:01:24.019Z,6.65
2022-08-14T03:04:15.847Z,6.30
2022-08-14T03:07:09.507Z,6.57
2022-08-14T03:10:26.504Z,7.05
2022-08-14T03:13:06.980Z,6.90
2022-08-14T03:16:20.302Z,7.18
2022-08-14T03:19:15.710Z,6.55
2022-08-14T03:22:17.738Z,7.07
2022-08-14T03:25:07.633Z,6.07
2022-08-14T03:28:02.754Z,7.10
2022-08-14T03:30:51.698Z,7.05
2022-08-14T03:33:44.502Z,6.88
2022-08-14T03:37:51.281Z,7.07
2022-08-14T03:39:43.815Z,6.85
2022-08-14T03:42:36.770Z,6.43
2022-08-14T03:45:35.454Z,7.70
2022-08-14T03:48:30.531Z,6.85
2022-08-14T03:51:20.067Z,6.75
2022-08-14T03:54:09.452Z,7.00
2022-08-14T03:57:06.751Z,6.80
2022-08-14T03:59:55.167Z,8.00
2022-08-14T04:02:46.815Z,6.85
2022-08-14T04:05:43.294Z,7.57
2022-08-14T04:08:38.415Z,6.50
2022-08-14T04:11:30.489Z,7.50
2022-08-14T04:14:20.933Z,7.18
2022-08-14T04:17:13.063Z,7.70
2022-08-14T04:20:04.047Z,7.10
2022-08-14T04:22:53.171Z,6.97
2022-08-14T04:25:44.444Z,6.90
2022-08-14T04:29:08.464Z,7.22
2022-08-14T04:33:02.075Z,7.22
2022-08-14T04:34:56.120Z,7.32
2022-08-14T04:38:36.020Z,7.07
2022-08-14T04:41:36.137Z,7.03
2022-08-14T04:44:26.496Z,7.20
2022-08-14T04:47:46.299Z,7.10
2022-08-14T04:50:44.594Z,7.10
2022-08-14T04:53:36.091Z,7.40
2022-08-14T04:56:30.222Z,7.45
2022-08-14T04:59:20.598Z,7.03
2022-08-14T05:02:10.251Z,7.68
2022-08-14T05:05:00.575Z,8.18
2022-08-14T05:08:01.158Z,8.65
2022-08-14T05:10:51.851Z,8.40
2022-08-14T05:16:50.371Z,8.48
2022-08-14T05:19:45.072Z,8.52
2022-08-14T05:22:55.623Z,8.88
2022-08-14T05:25:45.159Z,8.52
2022-08-14T05:28:36.183Z,9.27
2022-08-14T05:31:39.583Z,9.15
2022-08-14T05:34:32.048Z,8.60
2022-08-14T05:37:20.655Z,8.70
2022-08-14T05:40:13.272Z,7.72
2022-08-14T05:43:02.198Z,8.27
2022-08-14T05:45:55.570Z,8.93
2022-08-14T05:48:45.338Z,8.80
2022-08-14T05:51:33.923Z,8.68
2022-08-14T05:54:27.142Z,7.90
2022-08-14T05:57:17.808Z,8.20
2022-08-14T06:00:07.531Z,8.80
2022-08-14T06:02:57.483Z,8.20
2022-08-14T06:05:47.662Z,8.27
2022-08-14T06:08:41.804Z,8.55
2022-08-14T06:11:31.376Z,8.10
2022-08-14T06:14:24.181Z,8.48
2022-08-14T06:17:15.682Z,7.85
2022-08-14T06:20:15.593Z,9.02
2022-08-14T06:23:10.699Z,8.75
2022-08-14T06:25:59.485Z,8.95
2022-08-14T06:28:47.943Z,8.93
2022-08-14T06:31:42.365Z,8.30
2022-08-14T06:35:10.185Z,8.07
2022-08-14T06:37:44.201Z,8.30
2022-08-14T06:40:35.613Z,8.00
2022-08-14T06:43:29.831Z,8.15
2022-08-14T06:46:23.093Z,8.00
2022-08-14T06:49:16.472Z,8.32
2022-08-14T06:52:06.064Z,7.60
2022-08-14T06:54:55.305Z,7.75
2022-08-14T06:57:46.050Z,8.20
2022-08-14T07:00:34.677Z,6.85
2022-08-14T07:03:40.571Z,7.38
2022-08-14T07:06:46.585Z,7.05
2022-08-14T07:09:43.595Z,7.68
2022-08-14T07:12:54.197Z,6.85
2022-08-14T07:15:43.132Z,7.03
2022-08-14T07:18:33.157Z,6.25
2022-08-14T07:21:21.624Z,7.30
2022-08-14T07:24:26.160Z,6.53
2022-08-14T07:27:19.673Z,7.00
2022-08-14T07:30:34.478Z,7.07
2022-08-14T07:33:24.706Z,7.22
2022-08-14T07:36:27.769Z,7.38
2022-08-14T07:39:27.734Z,7.13
2022-08-14T07:42:16.778Z,6.63
2022-08-14T07:45:12.069Z,7.32
2022-08-14T07:48:00.878Z,6.60
2022-08-14T07:50:50.748Z,6.28
2022-08-14T07:53:41.268Z,6.68
2022-08-14T07:56:48.238Z,7.00
2022-08-14T07:59:42.328Z,6.60
2022-08-14T08:02:33.335Z,6.78
2022-08-14T08:05:24.506Z,7.00
2022-08-14T08:08:26.474Z,7.22
2022-08-14T08:11:19.318Z,6.65
2022-08-14T08:14:17.299Z,6.65
2022-08-14T08:17:07.039Z,6.70
2022-08-14T08:19:57.252Z,6.63
2022-08-14T08:22:47.943Z,7.10
2022-08-14T08:25:40.419Z,6.30
2022-08-14T08:28:31.362Z,5.95
2022-08-14T08:31:23.059Z,6.30
2022-08-14T08:34:23.596Z,6.53
2022-08-14T08:37:13.042Z,6.13
2022-08-14T08:40:04.175Z,6.20
2022-08-14T08:42:54.934Z,6.82
2022-08-14T08:45:55.627Z,6.95
2022-08-14T08:48:52.073Z,6.78
